Time;durP1;ratioP1;P1;durP2;ratioP2;P2;SDS_P1;SDS_P2;PMS_P1;PMS_P2;Temp;Humidity;BMP_temperature;BMP_pressure;BME280_temperature;BME280_humidity;BME280_pressure;Samples;Min_cycle;Max_cycle;Signal;HPM_P1;HPM_P2
2021/06/25 00:00:34;;;;;;;51.43;46.23;;;;;;;22.41;100.00;57455.84;2040629;28;20226;-80
2021/06/25 00:01:35;;;;;;;50.40;45.20;;;;;;;22.40;100.00;124260.38;2040717;28;20653;-80
2021/06/25 00:02:37;;;;;;;53.53;47.90;;;;;;;22.40;100.00;57196.03;2039736;29;20656;-80
2021/06/25 00:03:39;;;;;;;57.33;48.53;;;;;;;22.40;100.00;57196.03;2039418;29;20307;-79
2021/06/25 00:04:40;;;;;;;55.70;50.22;;;;;;;22.40;100.00;57196.03;2039660;29;20335;-80
2021/06/25 00:05:41;;;;;;;52.47;47.17;;;;;;;22.40;100.00;124260.38;2039660;29;20230;-79
2021/06/25 00:06:44;;;;;;;52.83;47.53;;;;;;;22.41;100.00;57196.03;2039627;29;20281;-79
2021/06/25 00:07:45;;;;;;;52.17;46.97;;;;;;;22.43;100.00;57455.84;2040553;28;20711;-79
2021/06/25 00:08:46;;;;;;;53.30;48.00;;;;;;;;;;2040458;28;20580;-79
2021/06/25 00:09:47;;;;;;;52.10;46.25;;;;;;;22.40;100.00;57455.84;2039742;29;20219;-79
2021/06/25 00:10:49;;;;;;;51.83;46.23;;;;;;;22.40;100.00;57196.03;2031725;29;20283;-79
2021/06/25 00:11:49;;;;;;;52.05;46.55;;;;;;;22.40;100.00;57196.03;2039506;29;20237;-79
2021/06/25 00:12:51;;;;;;;52.00;46.73;;;;;;;;;;2039514;29;20231;-79
2021/06/25 00:13:53;;;;;;;51.60;46.08;;;;;;;22.40;100.00;57196.03;2047608;28;20241;-79
2021/06/25 00:14:55;;;;;;;51.83;46.67;;;;;;;22.40;100.00;57455.84;2047013;28;20724;-79
2021/06/25 00:15:56;;;;;;;52.22;46.97;;;;;;;22.40;100.00;57455.84;2040363;28;20230;-79
2021/06/25 00:16:57;;;;;;;54.67;48.87;;;;;;;22.40;100.00;57196.03;2039538;29;20234;-79
2021/06/25 00:17:59;;;;;;;54.03;48.58;;;;;;;22.40;100.00;57196.03;2039637;29;20226;-80
2021/06/25 00:19:01;;;;;;;54.80;49.33;;;;;;;22.41;100.00;57455.84;2039156;29;20657;-79
2021/06/25 00:20:04;;;;;;;55.22;49.75;;;;;;;22.40;100.00;57455.84;2039747;29;20709;-79
2021/06/25 00:21:05;;;;;;;55.95;50.30;;;;;;;22.40;100.00;57196.03;2040413;28;20227;-80
2021/06/25 00:22:08;;;;;;;53.33;48.03;;;;;;;;;;2039663;29;20223;-79
2021/06/25 00:23:09;;;;;;;53.40;48.08;;;;;;;22.40;100.00;57196.03;2039448;29;20309;-79
2021/06/25 00:24:10;;;;;;;53.83;48.07;;;;;;;;;;2040303;28;20250;-79
2021/06/25 00:25:11;;;;;;;54.67;49.15;;;;;;;22.40;100.00;57196.03;2039558;29;20234;-79
2021/06/25 00:26:13;;;;;;;52.25;47.05;;;;;;;22.40;100.00;57196.03;2039718;29;20234;-79
2021/06/25 00:27:14;;;;;;;52.47;47.08;;;;;;;22.40;100.00;57455.84;2040359;28;20230;-79
2021/06/25 00:28:15;;;;;;;52.77;47.20;;;;;;;22.40;100.00;123732.13;2039579;29;20227;-80
2021/06/25 00:29:16;;;;;;;52.90;47.60;;;;;;;22.40;100.00;124260.38;2039779;29;20227;-79
2021/06/25 00:30:18;;;;;;;52.47;47.07;;;;;;;;;;2039582;29;20246;-79
2021/06/25 00:31:19;;;;;;;52.85;47.17;;;;;;;22.41;100.00;57196.03;2031890;29;20702;-79
2021/06/25 00:32:21;;;;;;;53.70;48.30;;;;;;;22.40;100.00;124260.38;2039557;29;20625;-79
2021/06/25 00:33:21;;;;;;;56.20;50.47;;;;;;;22.41;100.00;57196.03;2031609;29;20223;-79
2021/06/25 00:34:23;;;;;;;52.70;47.30;;;;;;;;;;2039519;29;20539;-79
2021/06/25 00:35:23;;;;;;;54.15;48.55;;;;;;;22.40;100.00;57196.03;2039148;29;20338;-79
2021/06/25 00:36:25;;;;;;;63.93;57.10;;;;;;;22.40;100.00;57196.03;2039590;29;20230;-79
2021/06/25 00:37:27;;;;;;;64.07;57.75;;;;;;;22.40;100.00;57455.84;2039492;29;20234;-79
2021/06/25 00:38:29;;;;;;;64.18;57.85;;;;;;;;;;2031682;29;20322;-79
2021/06/25 00:39:29;;;;;;;63.70;57.42;;;;;;;-144.27;100.00;91380.88;2031571;29;20235;-79
2021/06/25 00:40:32;;;;;;;64.60;58.30;;;;;;;22.40;100.00;69759.91;2039580;29;20231;-79
2021/06/25 00:41:33;;;;;;;68.45;61.67;;;;;;;22.40;100.00;57196.03;2039338;29;20226;-79
2021/06/25 00:42:35;;;;;;;63.90;57.57;;;;;;;22.40;100.00;124260.38;2039667;29;20230;-79
2021/06/25 00:43:37;;;;;;;61.50;55.20;;;;;;;22.40;100.00;57196.03;2039587;29;20367;-79
2021/06/25 00:44:39;;;;;;;64.22;57.88;;;;;;;;;;2031433;29;20247;-79
2021/06/25 00:45:40;;;;;;;67.13;60.78;;;;;;;22.40;100.00;57196.03;2039799;29;20230;-79
2021/06/25 00:46:41;;;;;;;62.60;56.33;;;;;;;22.40;100.00;57196.03;2040257;28;20258;-79
2021/06/25 00:47:43;;;;;;;63.35;56.85;;;;;;;;;;2039457;29;20239;-80
2021/06/25 00:48:44;;;;;;;65.28;59.00;;;;;;;;;;2031833;29;20219;-80
2021/06/25 00:49:45;;;;;;;62.85;56.65;;;;;;;;;;2039615;29;20694;-80
2021/06/25 00:50:47;;;;;;;60.57;54.70;;;;;;;22.40;100.00;69759.91;2040301;28;20561;-80
2021/06/25 00:51:48;;;;;;;57.20;51.10;;;;;;;22.40;100.00;57196.03;2040229;28;20226;-80
2021/06/25 00:52:52;;;;;;;59.37;53.20;;;;;;;22.40;100.00;57196.03;2039472;29;20226;-80
2021/06/25 00:53:53;;;;;;;62.42;55.88;;;;;;;22.40;100.00;57455.84;2031572;29;20227;-80
2021/06/25 00:54:54;;;;;;;60.33;54.13;;;;;;;22.40;100.00;57196.03;2039439;29;20237;-80
2021/06/25 00:55:55;;;;;;;57.53;51.22;;;;;;;;;;2040395;28;20230;-79
2021/06/25 00:56:56;;;;;;;60.97;54.97;;;;;;;22.40;100.00;57196.03;2040080;28;20290;-80
2021/06/25 00:57:57;;;;;;;62.55;56.25;;;;;;;;;;2040067;28;20223;-79
2021/06/25 00:58:59;;;;;;;62.70;56.30;;;;;;;;;;2039080;29;20241;-80
2021/06/25 01:00:00;;;;;;;60.17;53.83;;;;;;;22.40;100.00;57196.03;2031577;29;20280;-80
2021/06/25 01:01:02;;;;;;;61.83;55.13;;;;;;;22.43;100.00;123222.03;2039564;29;20414;-80
2021/06/25 01:02:03;;;;;;;61.55;55.20;;;;;;;22.40;100.00;57455.84;2040165;28;20306;-80
2021/06/25 01:03:04;;;;;;;65.40;58.37;;;;;;;22.40;100.00;57196.03;2040161;28;20296;-80
2021/06/25 01:04:05;;;;;;;62.40;56.20;;;;;;;;;;2039475;29;20592;-80
2021/06/25 01:05:08;;;;;;;61.40;55.20;;;;;;;-144.27;100.00;69797.25;2039470;29;20250;-80
2021/06/25 01:06:09;;;;;;;61.65;55.33;;;;;;;22.40;100.00;57196.03;2039028;29;20237;-80
2021/06/25 01:07:11;;;;;;;60.93;54.50;;;;;;;22.40;100.00;124260.38;2031560;29;20255;-80
2021/06/25 01:08:13;;;;;;;62.53;55.80;;;;;;;22.40;100.00;57196.03;2031024;29;20247;-79
2021/06/25 01:09:16;;;;;;;60.55;54.35;;;;;;;22.40;100.00;124260.38;2031517;29;20303;-80
2021/06/25 01:10:16;;;;;;;61.13;54.80;;;;;;;22.40;100.00;57196.03;2031435;29;20292;-80
2021/06/25 01:11:19;;;;;;;61.83;55.33;;;;;;;22.40;100.00;57196.03;2039448;29;20306;-79
2021/06/25 01:12:20;;;;;;;61.83;55.25;;;;;;;22.40;100.00;57455.84;2039184;29;20604;-80
2021/06/25 01:13:22;;;;;;;65.87;59.33;;;;;;;22.40;100.00;57196.03;2039483;29;20222;-80
2021/06/25 01:14:23;;;;;;;64.40;58.20;;;;;;;22.40;100.00;69759.91;2039721;28;20234;-79
2021/06/25 01:15:24;;;;;;;63.90;57.80;;;;;;;;;;2039327;29;20230;-79
2021/06/25 01:16:25;;;;;;;61.85;55.72;;;;;;;;;;2039372;29;20218;-80
2021/06/25 01:17:34;;;;;;;64.83;58.20;;;;;;;22.40;100.00;57196.03;2040163;28;20258;-79
2021/06/25 01:18:35;;;;;;;65.20;58.75;;;;;;;;;;2039225;29;20226;-80
2021/06/25 01:19:37;;;;;;;62.10;56.00;;;;;;;22.40;100.00;57455.84;2031561;29;20231;-79
2021/06/25 01:20:38;;;;;;;63.28;57.10;;;;;;;;;;2038944;29;20234;-80
2021/06/25 01:21:41;;;;;;;64.22;58.13;;;;;;;22.41;100.00;57455.84;2040133;28;20306;-80
2021/06/25 01:22:43;;;;;;;67.05;60.25;;;;;;;22.40;100.00;57455.84;2040226;28;27345;-79
2021/06/25 01:23:45;;;;;;;65.60;59.20;;;;;;;22.40;100.00;57196.03;2039186;29;20222;-80
2021/06/25 01:24:45;;;;;;;64.32;57.53;;;;;;;22.40;100.00;57196.03;2031534;29;20231;-80
2021/06/25 01:25:47;;;;;;;64.63;57.93;;;;;;;22.40;100.00;57455.84;2039382;29;20696;-80
2021/06/25 01:26:48;;;;;;;64.55;58.03;;;;;;;22.40;100.00;57196.03;2046948;28;20288;-80
2021/06/25 01:27:51;;;;;;;66.93;60.13;;;;;;;22.40;100.00;57455.84;2039113;29;20260;-80
2021/06/25 01:28:52;;;;;;;66.80;60.15;;;;;;;22.72;100.00;69834.63;2039381;29;20233;-79
2021/06/25 01:29:56;;;;;;;66.93;60.07;;;;;;;22.40;100.00;57455.84;2038706;29;20233;-80
2021/06/25 01:30:57;;;;;;;67.47;60.72;;;;;;;22.40;100.00;57455.84;2039276;29;20602;-80
2021/06/25 01:31:58;;;;;;;66.20;59.63;;;;;;;22.40;100.00;57196.03;2031407;29;20254;-80
2021/06/25 01:33:01;;;;;;;66.22;59.40;;;;;;;22.40;100.00;57196.03;2039101;29;20705;-80
2021/06/25 01:34:04;;;;;;;62.95;56.58;;;;;;;22.40;100.00;57196.03;2039168;29;20709;-80
2021/06/25 01:35:06;;;;;;;65.25;58.65;;;;;;;22.40;100.00;57196.03;2031551;29;20249;-80
2021/06/25 01:36:09;;;;;;;63.33;57.15;;;;;;;22.40;100.00;57455.84;2031545;29;20247;-80
2021/06/25 01:37:10;;;;;;;63.42;57.17;;;;;;;;;;2038957;29;20709;-79
2021/06/25 01:38:13;;;;;;;62.95;56.55;;;;;;;22.40;100.00;57196.03;2039190;29;20231;-80
2021/06/25 01:39:15;;;;;;;66.03;59.45;;;;;;;22.40;100.00;124260.38;2039433;29;20226;-80
2021/06/25 01:40:18;;;;;;;65.23;58.63;;;;;;;22.40;100.00;57196.03;2047127;28;20226;-80
2021/06/25 01:41:19;;;;;;;65.68;59.28;;;;;;;22.40;100.00;57196.03;2039137;29;20985;-80
2021/06/25 01:42:21;;;;;;;65.97;59.47;;;;;;;22.40;100.00;57196.03;2031015;29;20607;-80
2021/06/25 01:43:24;;;;;;;64.22;57.83;;;;;;;22.40;100.00;57196.03;2031420;29;20235;-80
2021/06/25 01:44:26;;;;;;;64.88;58.70;;;;;;;22.40;100.00;57196.03;2031423;29;20231;-80
2021/06/25 01:45:29;;;;;;;64.32;58.13;;;;;;;-144.27;100.00;69909.41;2039279;29;20231;-80
2021/06/25 01:46:32;;;;;;;63.25;57.30;;;;;;;22.40;100.00;57196.03;2038755;29;20677;-80
2021/06/25 01:47:34;;;;;;;64.93;58.55;;;;;;;22.40;100.00;57196.03;2039246;29;20281;-79
2021/06/25 01:48:36;;;;;;;62.55;56.17;;;;;;;22.40;100.00;57196.03;2039106;29;20231;-82
2021/06/25 01:49:37;;;;;;;63.30;57.40;;;;;;;22.40;100.00;57196.03;2031418;29;20227;-81
2021/06/25 01:50:41;;;;;;;67.50;61.17;;;;;;;22.40;100.00;57196.03;2030763;29;20231;-81
2021/06/25 01:51:47;;;;;;;67.40;60.65;;;;;;;22.40;100.00;57455.84;2031521;29;20890;-81
2021/06/25 01:52:53;;;;;;;64.65;58.20;;;;;;;22.40;100.00;57196.03;2039354;29;20278;-81
2021/06/25 01:53:54;;;;;;;62.90;56.70;;;;;;;22.40;100.00;57196.03;2038796;29;20290;-81
2021/06/25 01:54:56;;;;;;;62.23;56.10;;;;;;;22.40;100.00;57196.03;2039122;29;20291;-80
2021/06/25 01:55:58;;;;;;;62.45;56.33;;;;;;;;;;2039241;29;20239;-80
2021/06/25 01:57:00;;;;;;;67.07;60.90;;;;;;;22.40;100.00;57196.03;2039246;29;20274;-80
2021/06/25 01:58:00;;;;;;;65.60;59.40;;;;;;;22.40;100.00;57196.03;2039264;29;20294;-80
2021/06/25 01:59:02;;;;;;;66.40;60.23;;;;;;;22.40;100.00;57196.03;2039365;29;20290;-80
2021/06/25 02:00:03;;;;;;;69.78;63.17;;;;;;;;;;2039867;28;20239;-81
2021/06/25 02:01:10;;;;;;;71.88;65.35;;;;;;;22.40;100.00;124260.38;2040019;28;20227;-80
2021/06/25 02:02:11;;;;;;;72.28;65.50;;;;;;;22.40;100.00;57196.03;2039652;28;20234;-81
2021/06/25 02:03:12;;;;;;;71.57;64.77;;;;;;;22.40;100.00;57196.03;2040789;28;20234;-80
2021/06/25 02:04:13;;;;;;;71.97;64.63;;;;;;;;;;2041461;28;20234;-80
2021/06/25 02:05:16;;;;;;;71.10;64.20;;;;;;;22.41;100.00;57196.03;2040510;29;20258;-81
2021/06/25 02:06:16;;;;;;;70.75;63.88;;;;;;;;;;2040692;29;20227;-80
2021/06/25 02:07:18;;;;;;;73.53;66.53;;;;;;;22.40;100.00;57196.03;2041358;28;20230;-80
2021/06/25 02:08:20;;;;;;;67.80;61.10;;;;;;;22.41;100.00;57196.03;2040495;29;20697;-80
2021/06/25 02:09:21;;;;;;;71.15;64.43;;;;;;;;;;2032972;29;20249;-80
2021/06/25 02:10:22;;;;;;;75.27;68.37;;;;;;;-144.27;100.00;69909.41;2040757;28;20334;-80
2021/06/25 02:11:24;;;;;;;76.00;68.97;;;;;;;-144.27;100.00;69909.41;2040925;28;20474;-80
2021/06/25 02:12:25;;;;;;;73.10;66.18;;;;;;;22.41;100.00;57196.03;2040383;29;20227;-80
2021/06/25 02:13:27;;;;;;;71.53;64.72;;;;;;;22.41;100.00;57196.03;2032606;29;20231;-79
2021/06/25 02:14:29;;;;;;;70.28;63.00;;;;;;;22.41;100.00;57196.03;2032577;29;20231;-79
2021/06/25 02:15:31;;;;;;;67.35;60.60;;;;;;;22.56;100.00;69909.41;2032518;29;20233;-79
2021/06/25 02:16:32;;;;;;;70.15;63.05;;;;;;;22.41;100.00;57196.03;2040452;29;20647;-79
2021/06/25 02:17:33;;;;;;;65.43;59.03;;;;;;;22.41;100.00;57196.03;2040420;29;20346;-79
2021/06/25 02:18:34;;;;;;;65.70;59.08;;;;;;;22.41;100.00;57196.03;2032767;29;20254;-79
2021/06/25 02:19:36;;;;;;;63.60;56.90;;;;;;;22.43;100.00;57455.84;2040627;29;20231;-80
2021/06/25 02:20:37;;;;;;;62.45;55.55;;;;;;;;;;2041235;28;20230;-79
2021/06/25 02:21:38;;;;;;;60.87;54.47;;;;;;;;;;2040151;29;20701;-79
2021/06/25 02:22:39;;;;;;;62.80;52.27;;;;;;;;;;2040520;29;20573;-79
2021/06/25 02:23:42;;;;;;;64.47;57.67;;;;;;;22.56;100.00;57455.84;2040378;29;20446;-79
2021/06/25 02:24:43;;;;;;;64.25;57.95;;;;;;;22.56;100.00;58431.84;2040464;29;20702;-79
2021/06/25 02:25:44;;;;;;;65.53;59.40;;;;;;;;;;2041231;28;20631;-79
2021/06/25 02:26:45;;;;;;;61.13;54.95;;;;;;;22.48;100.00;57455.84;2040260;29;20223;-79
2021/06/25 02:27:47;;;;;;;61.13;54.57;;;;;;;22.48;100.00;57455.84;2032569;29;20306;-80
2021/06/25 02:28:47;;;;;;;64.30;57.50;;;;;;;22.43;100.00;57455.84;2032634;29;20231;-81
2021/06/25 02:29:49;;;;;;;59.80;53.80;;;;;;;22.43;100.00;57196.03;2040301;29;20462;-80
2021/06/25 02:30:50;;;;;;;61.53;55.33;;;;;;;22.43;100.00;57455.84;2040470;29;20237;-80
2021/06/25 02:31:52;;;;;;;62.67;56.67;;;;;;;22.43;100.00;57455.84;2032659;29;20230;-81
2021/06/25 02:32:52;;;;;;;61.45;55.13;;;;;;;22.43;100.00;57196.03;2032434;29;20599;-81
2021/06/25 02:33:54;;;;;;;60.07;54.10;;;;;;;22.41;100.00;57196.03;2040349;29;20250;-81
2021/06/25 02:34:55;;;;;;;60.57;54.10;;;;;;;22.43;100.00;57455.84;2041171;28;20234;-81
2021/06/25 02:35:56;;;;;;;63.97;57.30;;;;;;;22.56;100.00;58564.16;2041136;28;20474;-81
2021/06/25 02:36:57;;;;;;;61.93;55.83;;;;;;;22.72;100.00;58167.22;2041222;28;20234;-81
2021/06/25 02:37:59;;;;;;;63.83;57.17;;;;;;;25.00;100.00;91518.75;2040216;29;20523;-81
2021/06/25 02:39:01;;;;;;;64.55;57.58;;;;;;;22.40;100.00;69759.91;2040438;29;20226;-81
2021/06/25 02:40:04;;;;;;;65.20;59.00;;;;;;;;;;2040414;29;20235;-80
2021/06/25 02:41:04;;;;;;;68.32;61.72;;;;;;;22.56;100.00;57455.84;2040303;29;21012;-80
2021/06/25 02:42:07;;;;;;;67.10;60.70;;;;;;;32.82;100.00;91357.91;2040449;29;20682;-81
2021/06/25 02:43:07;;;;;;;62.70;56.73;;;;;;;22.56;100.00;57455.84;2040735;28;20230;-80
2021/06/25 02:44:09;;;;;;;62.00;55.40;;;;;;;22.48;100.00;57455.84;2041044;28;20524;-80
2021/06/25 02:45:11;;;;;;;61.53;55.30;;;;;;;22.40;100.00;107915.94;2040199;29;20234;-80
2021/06/25 02:46:13;;;;;;;63.17;56.77;;;;;;;22.43;100.00;57455.84;2040301;29;20546;-81
2021/06/25 02:47:13;;;;;;;63.30;57.03;;;;;;;22.48;100.00;57455.84;2039770;29;20455;-80
2021/06/25 02:48:15;;;;;;;67.07;60.33;;;;;;;22.43;100.00;57455.84;2040393;29;20447;-80
2021/06/25 02:49:16;;;;;;;60.77;54.73;;;;;;;22.56;100.00;57455.84;2040266;28;20231;-80
2021/06/25 02:50:18;;;;;;;64.13;57.73;;;;;;;-141.66;100.00;91518.75;2040340;28;20455;-80
2021/06/25 02:51:19;;;;;;;61.78;55.53;;;;;;;25.00;100.00;91426.84;2040255;29;20262;-80
2021/06/25 02:52:21;;;;;;;60.63;54.10;;;;;;;22.48;100.00;124260.38;2040397;29;20576;-80
2021/06/25 02:53:21;;;;;;;57.73;51.70;;;;;;;23.70;100.00;91518.75;2040266;29;21039;-80
2021/06/25 02:54:25;;;;;;;55.00;49.10;;;;;;;22.43;100.00;57196.03;2032468;29;20899;-80
2021/06/25 02:55:25;;;;;;;58.10;52.23;;;;;;;22.43;100.00;57196.03;2031986;29;20227;-80
2021/06/25 02:56:27;;;;;;;56.53;49.90;;;;;;;22.56;100.00;57455.84;2039861;29;20486;-81
2021/06/25 02:57:28;;;;;;;53.60;48.13;;;;;;;22.43;100.00;57196.03;2040201;29;20257;-80
2021/06/25 02:58:30;;;;;;;54.73;49.40;;;;;;;22.48;100.00;57455.84;2041112;28;20526;-81
2021/06/25 02:59:30;;;;;;;54.10;48.60;;;;;;;;;;2040291;29;20450;-81
2021/06/25 03:00:32;;;;;;;56.00;50.57;;;;;;;;;;2032556;29;20452;-81
2021/06/25 03:01:33;;;;;;;54.70;48.97;;;;;;;;;;2040280;29;20226;-81
2021/06/25 03:02:34;;;;;;;55.40;49.80;;;;;;;22.43;100.00;57196.03;2040175;29;20478;-80
2021/06/25 03:03:35;;;;;;;55.17;49.57;;;;;;;;;;2040200;29;20230;-81
2021/06/25 03:04:36;;;;;;;56.33;48.97;;;;;;;22.48;100.00;57455.84;2040881;28;20474;-81
2021/06/25 03:05:37;;;;;;;56.63;50.93;;;;;;;22.48;100.00;57455.84;2039982;29;20265;-80
2021/06/25 03:06:39;;;;;;;58.73;52.47;;;;;;;22.56;59.25;94173.69;2031892;29;20466;-80
2021/06/25 03:07:40;;;;;;;58.67;52.77;;;;;;;22.56;100.00;57455.84;2039775;29;20701;-80
2021/06/25 03:08:42;;;;;;;58.03;52.33;;;;;;;22.48;100.00;57455.84;2040294;29;20899;-80
2021/06/25 03:09:44;;;;;;;57.47;51.97;;;;;;;22.48;100.00;57455.84;2040863;28;20242;-80
2021/06/25 03:10:48;;;;;;;58.88;50.33;;;;;;;22.43;100.00;57196.03;2040091;29;20447;-80
2021/06/25 03:11:49;;;;;;;54.30;48.70;;;;;;;22.40;100.00;69759.91;2040291;29;20235;-80
2021/06/25 03:12:51;;;;;;;52.70;47.30;;;;;;;22.48;100.00;57455.84;2046151;28;20462;-80
2021/06/25 03:13:52;;;;;;;54.97;48.08;;;;;;;22.48;100.00;57455.84;2039987;29;20370;-80
2021/06/25 03:14:53;;;;;;;52.73;47.13;;;;;;;22.48;100.00;57196.03;2039119;28;20227;-80
2021/06/25 03:15:54;;;;;;;54.13;48.45;;;;;;;22.40;100.00;116343.63;2040122;29;20594;-80
2021/06/25 03:16:56;;;;;;;52.53;46.93;;;;;;;22.56;100.00;57455.84;2040142;29;20266;-80
2021/06/25 03:17:57;;;;;;;52.53;46.83;;;;;;;-144.27;100.00;91518.75;2048425;28;20281;-80
2021/06/25 03:18:58;;;;;;;49.93;44.47;;;;;;;22.56;100.00;57455.84;2040100;29;20347;-81
2021/06/25 03:19:59;;;;;;;51.97;46.30;;;;;;;23.05;100.00;69909.41;2039941;29;20662;-81
2021/06/25 03:21:01;;;;;;;51.37;45.90;;;;;;;22.72;100.00;70359.91;2040204;29;20313;-81
2021/06/25 03:22:02;;;;;;;54.58;48.78;;;;;;;22.43;100.00;69759.91;2048686;28;20285;-81
2021/06/25 03:23:03;;;;;;;54.07;48.27;;;;;;;23.05;100.00;70059.25;2048721;28;20285;-81
2021/06/25 03:24:05;;;;;;;52.58;46.92;;;;;;;22.56;100.00;58431.84;2040128;29;20231;-81
2021/06/25 03:25:09;;;;;;;53.13;47.50;;;;;;;22.56;100.00;57455.84;2032221;29;20236;-81
2021/06/25 03:26:10;;;;;;;50.87;45.57;;;;;;;22.72;100.00;70359.91;2040197;29;20234;-80
2021/06/25 03:27:12;;;;;;;52.33;46.27;;;;;;;22.56;100.00;69759.91;2039961;29;20471;-80
2021/06/25 03:28:13;;;;;;;48.87;43.43;;;;;;;22.48;100.00;57455.84;2040149;28;20408;-80
2021/06/25 03:29:14;;;;;;;49.67;44.35;;;;;;;22.48;100.00;57455.84;2039919;29;20459;-81
2021/06/25 03:30:16;;;;;;;51.10;45.70;;;;;;;;;;2040027;29;20234;-81
2021/06/25 03:31:17;;;;;;;49.93;44.80;;;;;;;22.72;100.00;59425.13;2048354;28;20357;-80
2021/06/25 03:32:19;;;;;;;50.57;45.40;;;;;;;;;;2048473;28;20458;-80
2021/06/25 03:33:20;;;;;;;51.57;45.43;;;;;;;22.40;100.00;69759.91;2039771;29;20697;-80
2021/06/25 03:34:21;;;;;;;53.83;45.90;;;;;;;22.56;100.00;57196.03;2039962;29;20892;-80
2021/06/25 03:35:22;;;;;;;53.42;47.20;;;;;;;22.40;100.00;69759.91;2048542;28;20676;-81
2021/06/25 03:36:24;;;;;;;53.60;46.97;;;;;;;22.72;100.00;58431.84;2048165;28;20630;-80
2021/06/25 03:37:25;;;;;;;51.83;46.00;;;;;;;22.48;100.00;57455.84;2048697;28;20731;-80
2021/06/25 03:38:28;;;;;;;52.90;47.20;;;;;;;22.56;100.00;57455.84;2048461;28;20268;-80
2021/06/25 03:39:28;;;;;;;55.50;49.60;;;;;;;;;;2039962;29;20469;-80
2021/06/25 03:40:34;;;;;;;53.00;47.30;;;;;;;22.72;100.00;70059.25;2040110;29;20270;-81
2021/06/25 03:41:35;;;;;;;51.90;46.57;;;;;;;23.05;100.00;69909.41;2048520;28;20221;-81
2021/06/25 03:42:36;;;;;;;53.33;47.53;;;;;;;;;;2048408;28;20537;-80
2021/06/25 03:43:37;;;;;;;50.83;44.90;;;;;;;23.05;100.00;69909.41;2048496;28;20242;-81
2021/06/25 03:44:39;;;;;;;50.23;44.43;;;;;;;27.61;100.00;91426.84;2048120;28;21054;-80
2021/06/25 03:45:39;;;;;;;55.87;47.27;;;;;;;-144.27;100.00;91426.84;2039873;29;20230;-81
2021/06/25 03:46:41;;;;;;;52.83;47.00;;;;;;;22.48;100.00;69759.91;2031871;29;20539;-80
2021/06/25 03:47:42;;;;;;;52.60;47.27;;;;;;;27.61;100.00;91426.84;2040010;29;20233;-81
2021/06/25 03:48:44;;;;;;;55.53;49.87;;;;;;;105.84;100.00;91340.69;2048234;28;20549;-80
2021/06/25 03:49:45;;;;;;;55.67;48.63;;;;;;;22.43;100.00;123732.13;2048292;28;20514;-81
2021/06/25 03:50:46;;;;;;;53.53;46.27;;;;;;;22.72;100.00;70059.25;2048388;28;20513;-81
2021/06/25 03:51:47;;;;;;;53.93;46.30;;;;;;;23.70;84.07;124260.38;2048354;28;20226;-81
2021/06/25 03:52:49;;;;;;;54.27;48.57;;;;;;;23.05;100.00;70059.25;2048486;28;20462;-81
2021/06/25 03:53:50;;;;;;;56.53;50.77;;;;;;;23.70;100.00;74495.59;2039802;29;20234;-81
2021/06/25 03:54:51;;;;;;;60.93;51.37;;;;;;;22.56;100.00;58431.84;2039971;29;20458;-81
2021/06/25 03:56:11;;;;;;;54.87;49.30;;;;;;;22.72;100.00;59425.13;2039401;29;20360;-81
2021/06/25 03:57:13;;;;;;;56.70;49.90;;;;;;;22.72;100.00;58167.22;2041676;28;20482;-80
2021/06/25 03:58:14;;;;;;;53.10;46.53;;;;;;;23.05;100.00;69909.41;2048281;28;20454;-80
2021/06/25 03:59:15;;;;;;;55.20;48.77;;;;;;;23.05;100.00;69909.41;2048259;28;20450;-80
2021/06/25 04:00:18;;;;;;;56.17;50.23;;;;;;;23.70;100.00;94163.44;2039587;29;20251;-80
2021/06/25 04:01:21;;;;;;;58.20;52.13;;;;;;;22.56;100.00;57455.84;2039852;29;20541;-81
2021/06/25 04:02:22;;;;;;;56.27;50.17;;;;;;;22.72;100.00;70059.25;2039599;29;20517;-81
2021/06/25 04:03:24;;;;;;;56.80;50.77;;;;;;;22.56;100.00;58167.22;2039399;29;20462;-81
2021/06/25 04:04:24;;;;;;;58.93;52.97;;;;;;;22.48;100.00;55637.59;2048076;28;20585;-81
2021/06/25 04:05:26;;;;;;;61.27;55.10;;;;;;;22.56;100.00;57455.84;2048269;28;20544;-81
2021/06/25 04:06:27;;;;;;;57.97;51.93;;;;;;;22.72;100.00;69909.41;2039617;29;20230;-80
2021/06/25 04:07:29;;;;;;;59.50;53.53;;;;;;;23.05;100.00;70059.25;2031934;29;20456;-81
2021/06/25 04:08:31;;;;;;;59.27;53.07;;;;;;;23.05;100.00;69909.41;2039941;29;20977;-80
2021/06/25 04:09:33;;;;;;;60.10;51.47;;;;;;;-144.27;100.00;70359.91;2039607;29;20462;-81
2021/06/25 04:10:33;;;;;;;58.73;52.57;;;;;;;22.72;100.00;70059.25;2039805;29;20475;-81
2021/06/25 04:11:36;;;;;;;58.13;52.03;;;;;;;22.72;100.00;70359.91;2048098;28;20466;-81
2021/06/25 04:12:38;;;;;;;57.87;51.60;;;;;;;22.72;100.00;70059.25;2039677;29;20294;-81
2021/06/25 04:13:40;;;;;;;56.97;51.07;;;;;;;22.56;100.00;57455.84;2039295;28;20965;-81
2021/06/25 04:14:40;;;;;;;57.60;51.40;;;;;;;22.40;100.00;57650.69;2039676;29;20572;-81
2021/06/25 04:15:42;;;;;;;56.17;50.30;;;;;;;;;;2039566;29;20466;-81
2021/06/25 04:16:43;;;;;;;58.63;52.40;;;;;;;22.40;100.00;124524.53;2031739;29;20291;-81
2021/06/25 04:17:44;;;;;;;60.20;53.60;;;;;;;22.40;100.00;124656.63;2039410;29;20506;-81
2021/06/25 04:18:45;;;;;;;59.67;53.73;;;;;;;;;;2047353;28;20317;-81
2021/06/25 04:19:47;;;;;;;58.70;52.80;;;;;;;22.40;100.00;124656.63;2039692;28;20450;-80
2021/06/25 04:20:48;;;;;;;57.37;50.87;;;;;;;22.40;100.00;124524.53;2039586;29;20894;-80
2021/06/25 04:21:49;;;;;;;63.97;56.97;;;;;;;22.40;100.00;57683.19;2031814;29;20475;-80
2021/06/25 04:22:50;;;;;;;68.20;57.00;;;;;;;22.40;100.00;124656.63;2039694;29;20462;-80
2021/06/25 04:23:52;;;;;;;60.97;54.63;;;;;;;22.40;100.00;57683.19;2048262;28;20984;-81
2021/06/25 04:24:53;;;;;;;61.43;55.03;;;;;;;22.40;100.00;57683.19;2047736;28;20279;-80
2021/06/25 04:25:54;;;;;;;58.20;52.33;;;;;;;22.40;100.00;57650.69;2047849;28;20508;-81
2021/06/25 04:26:56;;;;;;;57.87;51.60;;;;;;;;;;2039507;29;20334;-80
2021/06/25 04:27:58;;;;;;;59.07;52.87;;;;;;;22.40;100.00;57699.41;2039165;29;20450;-80
2021/06/25 04:28:59;;;;;;;57.60;51.00;;;;;;;;;;2039712;29;20459;-81
2021/06/25 04:30:00;;;;;;;60.37;49.80;;;;;;;;;;2048126;28;20461;-81
2021/06/25 04:31:02;;;;;;;56.60;50.03;;;;;;;;;;2039399;29;20234;-81
2021/06/25 04:32:04;;;;;;;55.97;50.10;;;;;;;;;;2039743;29;20463;-80
2021/06/25 04:33:05;;;;;;;60.43;50.97;;;;;;;;;;2048108;28;20520;-80
2021/06/25 04:34:06;;;;;;;58.37;52.07;;;;;;;;;;2039446;29;20527;-81
2021/06/25 04:35:07;;;;;;;62.27;53.93;;;;;;;;;;2039377;29;20689;-80
2021/06/25 04:36:09;;;;;;;61.17;51.57;;;;;;;22.40;100.00;57683.19;2039046;29;20471;-80
2021/06/25 04:37:09;;;;;;;55.43;49.40;;;;;;;;;;2039314;29;20546;-80
2021/06/25 04:38:11;;;;;;;61.93;53.03;;;;;;;;;;2039401;29;20510;-80
2021/06/25 04:39:12;;;;;;;58.07;49.37;;;;;;;;;;2039546;29;20235;-80
2021/06/25 04:40:14;;;;;;;56.27;50.27;;;;;;;22.40;100.00;124656.63;2048145;28;20944;-80
2021/06/25 04:41:15;;;;;;;59.57;53.17;;;;;;;22.40;100.00;57699.41;2039479;29;20669;-80
2021/06/25 04:42:18;;;;;;;57.40;51.30;;;;;;;;;;2039540;29;20474;-80
2021/06/25 04:43:19;;;;;;;59.90;43.93;;;;;;;;;;2039211;29;20230;-80
2021/06/25 04:44:20;;;;;;;62.37;48.30;;;;;;;;;;2031582;29;20919;-80
2021/06/25 04:45:21;;;;;;;59.37;45.67;;;;;;;22.40;100.00;124656.63;2039732;29;20977;-80
2021/06/25 04:46:23;;;;;;;59.23;42.83;;;;;;;22.40;100.00;124524.53;2039450;29;20866;-80
2021/06/25 04:47:24;;;;;;;55.87;42.33;;;;;;;;;;2039303;29;20705;-80
2021/06/25 04:48:27;;;;;;;55.23;46.10;;;;;;;;;;2039433;29;20550;-81
2021/06/25 04:49:27;;;;;;;54.63;42.87;;;;;;;;;;2039720;29;20475;-80
2021/06/25 04:50:28;;;;;;;53.73;44.23;;;;;;;;;;2039486;29;20522;-80
2021/06/25 04:51:29;;;;;;;54.47;46.00;;;;;;;;;;2039650;29;20230;-80
2021/06/25 04:52:31;;;;;;;54.90;43.83;;;;;;;;;;2039228;28;20499;-80
2021/06/25 04:53:31;;;;;;;57.57;43.27;;;;;;;22.40;100.00;124656.63;2031682;29;20224;-80